地図

経路データ

SID SEASON NUMBER BASIN SUBBASIN NAME ISO_TIME NATURE LAT LON WMO_WIND WMO_PRES WMO_AGENCY TRACK_TYPE DIST2LAND LANDFALL IFLAG USA_AGENCY USA_ATCF_ID USA_LAT USA_LON USA_RECORD USA_STATUS USA_WIND USA_PRES USA_SSHS USA_R34_NE USA_R34_SE USA_R34_SW USA_R34_NW USA_R50_NE USA_R50_SE USA_R50_SW USA_R50_NW USA_R64_NE USA_R64_SE USA_R64_SW USA_R64_NW USA_POCI USA_ROCI USA_RMW USA_EYE TOKYO_LAT TOKYO_LON TOKYO_GRADE TOKYO_WIND TOKYO_PRES TOKYO_R50_DIR TOKYO_R50_LONG TOKYO_R50_SHORT TOKYO_R30_DIR TOKYO_R30_LONG TOKYO_R30_SHORT TOKYO_LAND CMA_LAT CMA_LON CMA_CAT CMA_WIND CMA_PRES HKO_LAT HKO_LON HKO_CAT HKO_WIND HKO_PRES NEWDELHI_LAT NEWDELHI_LON NEWDELHI_GRADE NEWDELHI_WIND NEWDELHI_PRES NEWDELHI_CI NEWDELHI_DP NEWDELHI_POCI REUNION_LAT REUNION_LON REUNION_TYPE REUNION_WIND REUNION_PRES REUNION_TNUM REUNION_CI REUNION_RMW REUNION_R34_NE REUNION_R34_SE REUNION_R34_SW REUNION_R34_NW REUNION_R50_NE REUNION_R50_SE REUNION_R50_SW REUNION_R50_NW REUNION_R64_NE REUNION_R64_SE REUNION_R64_SW REUNION_R64_NW BOM_LAT BOM_LON BOM_TYPE BOM_WIND BOM_PRES BOM_TNUM BOM_CI BOM_RMW BOM_R34_NE BOM_R34_SE BOM_R34_SW BOM_R34_NW BOM_R50_NE BOM_R50_SE BOM_R50_SW BOM_R50_NW BOM_R64_NE BOM_R64_SE BOM_R64_SW BOM_R64_NW BOM_ROCI BOM_POCI BOM_EYE BOM_POS_METHOD BOM_PRES_METHOD NADI_LAT NADI_LON NADI_CAT NADI_WIND NADI_PRES WELLINGTON_LAT WELLINGTON_LON WELLINGTON_WIND WELLINGTON_PRES DS824_LAT DS824_LON DS824_STAGE DS824_WIND DS824_PRES TD9636_LAT TD9636_LON TD9636_STAGE TD9636_WIND TD9636_PRES TD9635_LAT TD9635_LON TD9635_WIND TD9635_PRES TD9635_ROCI NEUMANN_LAT NEUMANN_LON NEUMANN_CLASS NEUMANN_WIND NEUMANN_PRES MLC_LAT MLC_LON MLC_CLASS MLC_WIND MLC_PRES USA_GUST BOM_GUST BOM_GUST_PER REUNION_GUST REUNION_GUST_PER USA_SEAHGT USA_SEARAD_NE USA_SEARAD_SE USA_SEARAD_SW USA_SEARAD_NW STORM_SPEED STORM_DIR
1974225N11317 1974 78 NA NA ALMA 1974-08-12 12:00:00 TS 10.5000 -43.0000 25 1010 hurdat_atl main 1149 1055 O_____________ hurdat_atl AL071974 10.5000 -43.0000 TD 25 1010 -1 23 268
1974225N11317 1974 78 NA NA ALMA 1974-08-12 15:00:00 TS 10.4509 -44.1626 main 1046 959 P_____________ AL071974 10.4509 -44.1626 TD 25 -1 23 267
1974225N11317 1974 78 NA NA ALMA 1974-08-12 18:00:00 TS 10.4000 -45.3000 25 hurdat_atl main 951 878 O_____________ hurdat_atl AL071974 10.4000 -45.3000 TD 25 -1 22 267
1974225N11317 1974 78 NA NA ALMA 1974-08-12 21:00:00 TS 10.3495 -46.4000 main 862 798 P_____________ AL071974 10.3495 -46.4000 TD 25 -1 22 267
1974225N11317 1974 78 NA NA ALMA 1974-08-13 00:00:00 TS 10.3000 -47.5000 25 hurdat_atl main 792 721 O_____________ hurdat_atl AL071974 10.3000 -47.5000 TD 25 -1 22 267
1974225N11317 1974 78 NA NA ALMA 1974-08-13 03:00:00 TS 10.2498 -48.6500 main 712 645 P_____________ AL071974 10.2498 -48.6500 TD 27 -1 23 267
1974225N11317 1974 78 NA NA ALMA 1974-08-13 06:00:00 TS 10.2000 -49.8000 30 hurdat_atl main 639 587 O_____________ hurdat_atl AL071974 10.2000 -49.8000 TD 30 -1 22 267
1974225N11317 1974 78 NA NA ALMA 1974-08-13 09:00:00 TS 10.1497 -50.9224 main 577 534 P_____________ AL071974 10.1497 -50.9224 TD 32 -1 22 267
1974225N11317 1974 78 NA NA ALMA 1974-08-13 12:00:00 TS 10.1000 -52.0000 35 hurdat_atl main 529 481 O_____________ hurdat_atl AL071974 10.1000 -52.0000 TS 35 0 20 267
1974225N11317 1974 78 NA NA ALMA 1974-08-13 15:00:00 TS 10.0342 -52.9776 main 477 460 P_____________ AL071974 10.0342 -52.9776 TS 45 0 20 267
1974225N11317 1974 78 NA NA ALMA 1974-08-13 18:00:00 TS 10.0000 -54.0000 55 1007 hurdat_atl main 459 459 O_____________ hurdat_atl AL071974 10.0000 -54.0000 TS 55 1007 0 22 270
1974225N11317 1974 78 NA NA ALMA 1974-08-13 21:00:00 TS 10.0428 -55.2498 main 459 370 P_____________ AL071974 10.0428 -55.2498 TS 52 0 25 272
1974225N11317 1974 78 NA NA ALMA 1974-08-14 00:00:00 TS 10.1000 -56.5000 50 hurdat_atl main 361 287 O_____________ hurdat_atl AL071974 10.1000 -56.5000 TS 50 0 23 271
1974225N11317 1974 78 NA NA ALMA 1974-08-14 03:00:00 TS 10.0993 -57.5376 main 287 239 P_____________ AL071974 10.0993 -57.5376 TS 47 0 20 270
1974225N11317 1974 78 NA NA ALMA 1974-08-14 06:00:00 TS 10.1000 -58.5000 45 hurdat_atl main 234 175 O_____________ hurdat_atl AL071974 10.1000 -58.5000 TS 45 0 19 271
1974225N11317 1974 78 NA NA ALMA 1974-08-14 09:00:00 TS 10.1418 -59.4625 main 164 65 P_____________ AL071974 10.1418 -59.4625 TS 42 0 20 273
1974225N11317 1974 78 NA NA ALMA 1974-08-14 12:00:00 TS 10.2000 -60.5000 40 hurdat_atl main 54 0 O_____________ hurdat_atl AL071974 10.2000 -60.5000 TS 40 0 22 273
1974225N11317 1974 78 NA CS ALMA 1974-08-14 15:00:00 TS 10.2499 -61.7126 main 0 0 P_____________ AL071974 10.2499 -61.7126 TS 37 0 25 272
1974225N11317 1974 78 NA CS ALMA 1974-08-14 18:00:00 TS 10.3000 -63.0000 35 hurdat_atl main 0 0 O_____________ hurdat_atl AL071974 10.3000 -63.0000 TS 35 0 25 272
1974225N11317 1974 78 NA NA ALMA 1974-08-14 21:00:00 TS 10.3499 -64.2874 main 0 0 P_____________ AL071974 10.3499 -64.2874 TS 35 0 25 272
1974225N11317 1974 78 NA CS ALMA 1974-08-15 00:00:00 TS 10.4000 -65.5000 35 hurdat_atl main 22 0 O_____________ hurdat_atl AL071974 10.4000 -65.5000 TS 35 0 22 273
1974225N11317 1974 78 NA NA ALMA 1974-08-15 03:00:00 TS 10.4564 -66.5000 main 0 0 P_____________ AL071974 10.4564 -66.5000 TS 35 0 20 273
1974225N11317 1974 78 NA NA ALMA 1974-08-15 06:00:00 TS 10.5000 -67.5000 35 hurdat_atl main 10 0 O_____________ hurdat_atl AL071974 10.5000 -67.5000 TS 35 0 22 271
1974225N11317 1974 78 NA NA ALMA 1974-08-15 09:00:00 TS 10.5116 -68.6876 main 0 0 P_____________ AL071974 10.5116 -68.6876 TS 35 0 25 270
1974225N11317 1974 78 NA NA ALMA 1974-08-15 12:00:00 TS 10.5000 -70.0000 35 hurdat_atl main 0 O_____________ hurdat_atl AL071974 10.5000 -70.0000 TS 35 0 26 269

IBTrACS Databaseについて

本データベースは、米国NOAAが公開する1842年以降の世界の熱帯低気圧のベストトラックデータアーカイブInternational Best Track Archive for Climate Stewardship (IBTrACS)を、ウェブで閲覧しやすい形式に変換したものです。

最終更新日:2021-10-21